Time;durP1;ratioP1;P1;durP2;ratioP2;P2;SDS_P1;SDS_P2;PMS_P1;PMS_P2;Temp;Humidity;BMP_temperature;BMP_pressure;BME280_temperature;BME280_humidity;BME280_pressure;Samples;Min_cycle;Max_cycle;Signal;HPM_P1;HPM_P2
2021/08/26 00:07:24;;;;;;;1069.13;964.10;;;;;;;;;;5011080;28;20569;-79
2021/08/26 00:09:51;;;;;;;1064.57;959.70;;;;;;;;;;4993856;28;20054;-76
2021/08/26 00:12:18;;;;;;;1064.40;959.70;;;;;;;;;;5009669;28;20030;-79
2021/08/26 00:14:45;;;;;;;1066.15;961.25;;;;;;;;;;5010837;28;20045;-78
2021/08/26 00:17:11;;;;;;;1073.15;968.00;;;;;;;;;;5011073;28;20492;-79
2021/08/26 00:19:38;;;;;;;1057.53;953.08;;;;;;;;;;4994039;28;20050;-76
2021/08/26 00:22:04;;;;;;;1065.07;960.25;;;;;;;;;;5009570;28;20026;-78
2021/08/26 00:24:31;;;;;;;1066.88;961.97;;;;;;;;;;4992328;28;20129;-79
2021/08/26 00:26:57;;;;;;;1066.60;961.53;;;;;;;;;;4994429;28;20057;-78
2021/08/26 00:29:23;;;;;;;1064.57;959.67;;;;;;;;;;4992153;28;20684;-77
2021/08/26 00:31:48;;;;;;;1058.22;953.65;;;;;;;;;;4993075;28;20041;-77
2021/08/26 00:34:14;;;;;;;1053.00;948.83;;;;;;;;;;4997273;28;20021;-77
2021/08/26 00:36:40;;;;;;;1055.15;950.75;;;;;;;;;;4997271;28;20025;-77
2021/08/26 00:39:06;;;;;;;1056.18;951.80;;;;;;;;;;5018631;28;20057;-78
2021/08/26 00:41:32;;;;;;;1058.22;953.58;;;;;;;;;;4990152;28;20556;-77
2021/08/26 00:43:58;;;;;;;1057.20;952.53;;;;;;;;;;5012431;28;20026;-77
2021/08/26 00:46:25;;;;;;;1063.55;958.40;;;;;;;;;;4992522;28;20405;-77
2021/08/26 00:48:51;;;;;;;1050.00;945.67;;;;;;;;;;5017542;28;20026;-78
2021/08/26 00:51:17;;;;;;;1058.53;953.80;;;;;;;;;;4990863;28;20243;-76
2021/08/26 00:53:44;;;;;;;1054.00;949.40;;;;;;;;;;5008037;28;20045;-78
2021/08/26 00:56:13;;;;;;;1053.35;948.88;;;;;;;;;;4991281;28;20040;-77
2021/08/26 00:58:40;;;;;;;1055.65;951.03;;;;;;;;;;4991503;28;20076;-78
2021/08/26 01:01:08;;;;;;;1048.13;944.03;;;;;;;;;;5008111;28;20029;-77
2021/08/26 01:03:48;;;;;;;1053.57;949.13;;;;;;;;;;4989837;28;20366;-77
2021/08/26 01:06:17;;;;;;;1046.40;942.23;;;;;;;;;;4987156;28;20022;-78
2021/08/26 01:08:51;;;;;;;1063.72;958.65;;;;;;;;;;5007540;28;20312;-79
2021/08/26 01:11:18;;;;;;;1050.32;945.63;;;;;;;;;;4991158;28;20034;-78
2021/08/26 01:13:44;;;;;;;1046.50;942.25;;;;;;;;;;4986441;28;20034;-78
2021/08/26 01:16:14;;;;;;;1052.85;948.22;;;;;;;;;;4986074;28;20033;-78
2021/08/26 01:18:44;;;;;;;1040.82;936.97;;;;;;;;;;4990320;28;20067;-78
2021/08/26 01:21:21;;;;;;;1033.15;929.70;;;;;;;;;;4998195;28;20533;-78
2021/08/26 01:23:50;;;;;;;1032.53;929.20;;;;;;;;;;4988197;28;20030;-79
2021/08/26 01:26:42;;;;;;;1028.47;925.25;;;;;;;;;;4990027;28;20129;-80
2021/08/26 01:29:08;;;;;;;1031.85;928.28;;;;;;;;;;4969901;28;20385;-79
2021/08/26 01:31:35;;;;;;;1032.15;928.30;;;;;;;;;;5006927;28;20084;-79
2021/08/26 01:34:01;;;;;;;1029.93;926.35;;;;;;;;;;4993353;28;20064;-79
2021/08/26 01:36:28;;;;;;;1025.65;922.38;;;;;;;;;;4990794;28;20521;-84
2021/08/26 01:38:59;;;;;;;1035.20;930.72;;;;;;;;;;4999338;28;20038;-84
2021/08/26 01:41:35;;;;;;;1030.93;927.10;;;;;;;;;;5001958;28;20050;-82
2021/08/26 01:44:01;;;;;;;1023.28;920.13;;;;;;;;;;5005482;28;20034;-82
2021/08/26 01:46:27;;;;;;;1025.40;922.22;;;;;;;;;;4990731;28;20048;-85
2021/08/26 01:48:53;;;;;;;1031.93;928.53;;;;;;;;;;4990958;28;20068;-84
2021/08/26 01:51:19;;;;;;;1043.60;939.33;;;;;;;;;;4989004;28;20033;-83
2021/08/26 01:53:45;;;;;;;1031.85;928.25;;;;;;;;;;5004979;28;20040;-83
2021/08/26 01:56:11;;;;;;;1031.53;927.88;;;;;;;;;;5008124;28;20034;-86
2021/08/26 01:58:37;;;;;;;1028.13;924.55;;;;;;;;;;5009939;28;20029;-82
2021/08/26 02:01:03;;;;;;;1019.00;916.03;;;;;;;;;;4985535;28;20030;-85
2021/08/26 02:03:29;;;;;;;1027.63;924.22;;;;;;;;;;5002833;28;20176;-82
2021/08/26 02:05:55;;;;;;;1030.47;926.90;;;;;;;;;;5008121;28;20221;-84
2021/08/26 02:08:21;;;;;;;1025.55;922.20;;;;;;;;;;5007827;28;20109;-85
2021/08/26 02:10:46;;;;;;;1021.63;918.72;;;;;;;;;;4981539;28;20041;-85
2021/08/26 02:13:12;;;;;;;1021.20;918.28;;;;;;;;;;4984132;28;20048;-85
2021/08/26 02:15:38;;;;;;;1019.15;916.25;;;;;;;;;;5008399;28;20049;-84
2021/08/26 02:18:04;;;;;;;1019.65;917.00;;;;;;;;;;5007027;28;20101;-85
2021/08/26 02:20:30;;;;;;;1032.50;929.13;;;;;;;;;;5008031;28;20030;-83
2021/08/26 02:22:57;;;;;;;1022.60;919.70;;;;;;;;;;5002947;28;20030;-83
2021/08/26 02:25:22;;;;;;;1029.45;926.17;;;;;;;;;;5007850;28;20026;-83
2021/08/26 02:27:48;;;;;;;1016.92;914.38;;;;;;;;;;5006328;28;20030;-84
2021/08/26 02:30:14;;;;;;;1022.72;919.63;;;;;;;;;;5007305;28;20100;-83
2021/08/26 02:32:40;;;;;;;1019.47;916.47;;;;;;;;;;4987777;28;20496;-84
2021/08/26 02:35:07;;;;;;;1015.13;912.35;;;;;;;;;;4989685;28;20032;-82
2021/08/26 02:37:33;;;;;;;1006.92;904.90;;;;;;;;;;5006792;28;20026;-84
2021/08/26 02:39:59;;;;;;;1018.35;915.58;;;;;;;;;;4989877;28;20036;-85
2021/08/26 02:42:25;;;;;;;1020.97;918.08;;;;;;;;;;4994452;28;20037;-84
2021/08/26 02:44:51;;;;;;;1019.33;916.58;;;;;;;;;;4993208;28;20054;-81
2021/08/26 02:47:17;;;;;;;1025.10;922.03;;;;;;;;;;5012001;28;20052;-83
2021/08/26 02:49:43;;;;;;;1031.55;927.75;;;;;;;;;;5008634;28;20029;-83
2021/08/26 02:52:09;;;;;;;1029.60;926.30;;;;;;;;;;4998615;28;20647;-83
2021/08/26 02:54:35;;;;;;;1020.58;917.38;;;;;;;;;;4988860;28;20555;-83
2021/08/26 02:57:01;;;;;;;1020.00;916.90;;;;;;;;;;4992219;28;20026;-84
2021/08/26 02:59:27;;;;;;;1019.58;916.53;;;;;;;;;;5003066;28;20050;-84
2021/08/26 03:01:53;;;;;;;1024.43;921.05;;;;;;;;;;5014327;28;20104;-84
2021/08/26 03:04:19;;;;;;;1024.93;921.45;;;;;;;;;;5007354;28;20048;-83
2021/08/26 03:06:45;;;;;;;1025.35;922.17;;;;;;;;;;4993391;28;20072;-83
2021/08/26 03:09:11;;;;;;;1022.42;919.15;;;;;;;;;;5004173;28;20048;-83
2021/08/26 03:11:37;;;;;;;1011.95;909.25;;;;;;;;;;4989200;28;20057;-83
2021/08/26 03:14:03;;;;;;;1015.78;913.05;;;;;;;;;;5012579;28;20131;-82
2021/08/26 03:16:29;;;;;;;1025.20;921.83;;;;;;;;;;4998255;28;20037;-83
2021/08/26 03:18:54;;;;;;;1019.58;916.42;;;;;;;;;;5006656;28;20052;-84
2021/08/26 03:21:20;;;;;;;1019.97;916.83;;;;;;;;;;5001140;28;20022;-84
2021/08/26 03:23:46;;;;;;;1028.30;924.55;;;;;;;;;;5024348;28;20052;-83
2021/08/26 03:26:12;;;;;;;1022.33;918.97;;;;;;;;;;5003314;28;20406;-83
2021/08/26 03:28:38;;;;;;;1027.18;923.67;;;;;;;;;;4997272;28;20073;-83
2021/08/26 03:31:04;;;;;;;1022.00;918.88;;;;;;;;;;4989126;28;20339;-84
2021/08/26 03:33:30;;;;;;;1026.97;923.38;;;;;;;;;;4991277;28;20033;-85
2021/08/26 03:35:56;;;;;;;1025.38;922.03;;;;;;;;;;5009168;28;20283;-84
2021/08/26 03:38:22;;;;;;;1025.30;922.30;;;;;;;;;;5000445;28;20493;-81
2021/08/26 03:40:48;;;;;;;1034.50;931.15;;;;;;;;;;4993365;28;20044;-83
2021/08/26 03:43:14;;;;;;;1014.65;911.17;;;;;;;;;;4989941;28;20470;-83
2021/08/26 03:45:40;;;;;;;1024.57;921.80;;;;;;;;;;4989163;28;20686;-81
2021/08/26 03:48:06;;;;;;;1011.95;909.55;;;;;;;;;;4988578;28;20030;-84
2021/08/26 03:50:34;;;;;;;1017.67;915.17;;;;;;;;;;5006127;28;20393;-83
2021/08/26 03:53:00;;;;;;;1014.22;911.92;;;;;;;;;;4986676;28;20032;-81
2021/08/26 03:55:26;;;;;;;1010.35;908.03;;;;;;;;;;4987965;28;20030;-83
2021/08/26 03:57:52;;;;;;;1008.53;906.40;;;;;;;;;;5004605;28;20038;-82
2021/08/26 04:00:18;;;;;;;794.28;708.35;;;;;;;;;;4998664;28;20591;-83
2021/08/26 04:02:44;;;;;;;1007.75;905.63;;;;;;;;;;4988445;28;20044;-83
2021/08/26 04:05:10;;;;;;;1008.20;903.55;;;;;;;;;;4985803;28;20228;-82
2021/08/26 04:07:36;;;;;;;1011.33;908.90;;;;;;;;;;4984732;28;20065;-82
2021/08/26 04:10:02;;;;;;;1014.40;912.05;;;;;;;;;;4995769;28;20258;-84
2021/08/26 04:12:28;;;;;;;871.55;780.08;;;;;;;;;;5005859;28;20414;-84
2021/08/26 04:14:55;;;;;;;834.63;745.53;;;;;;;;;;5019979;28;20029;-83
2021/08/26 04:17:21;;;;;;;788.63;703.13;;;;;;;;;;4996541;28;20443;-84
2021/08/26 04:19:47;;;;;;;744.42;659.65;;;;;;;;;;4992676;28;20057;-82
2021/08/26 04:22:14;;;;;;;702.05;602.97;;;;;;;;;;4992375;28;20029;-83
2021/08/26 04:24:40;;;;;;;944.60;847.58;;;;;;;;;;4996418;28;20064;-83
2021/08/26 04:27:06;;;;;;;485.45;292.00;;;;;;;;;;4990827;28;20065;-83
2021/08/26 04:29:32;;;;;;;942.47;845.65;;;;;;;;;;4980915;28;20030;-82
2021/08/26 04:31:58;;;;;;;720.78;617.17;;;;;;;;;;5007304;28;20032;-83
2021/08/26 04:34:25;;;;;;;712.50;606.10;;;;;;;;;;4996287;28;20030;-81
2021/08/26 04:36:51;;;;;;;827.65;738.95;;;;;;;;;;5007858;28;20129;-83
2021/08/26 04:39:17;;;;;;;978.92;878.05;;;;;;;;;;5009544;28;20109;-84
2021/08/26 04:41:43;;;;;;;712.70;617.17;;;;;;;;;;4990555;28;20037;-83
2021/08/26 04:44:09;;;;;;;733.25;632.70;;;;;;;;;;5007705;28;20481;-83
2021/08/26 04:46:35;;;;;;;695.38;563.17;;;;;;;;;;4991640;28;20049;-84
2021/08/26 04:49:01;;;;;;;943.38;846.50;;;;;;;;;;5008781;28;20299;-84
2021/08/26 04:51:27;;;;;;;935.63;839.28;;;;;;;;;;4986541;28;20039;-85
2021/08/26 04:53:53;;;;;;;602.92;412.85;;;;;;;;;;5009436;28;20049;-83
2021/08/26 04:56:19;;;;;;;1013.75;910.22;;;;;;;;;;5007979;28;20389;-84
2021/08/26 04:58:45;;;;;;;1017.05;913.42;;;;;;;;;;4998150;28;20037;-84
2021/08/26 05:01:11;;;;;;;523.10;263.40;;;;;;;;;;5001898;28;20554;-82
2021/08/26 05:03:37;;;;;;;976.85;876.25;;;;;;;;;;4984068;28;20014;-84
2021/08/26 05:06:04;;;;;;;1015.15;911.45;;;;;;;;;;4997047;28;20485;-83
2021/08/26 05:08:30;;;;;;;1016.70;912.85;;;;;;;;;;5004817;28;20108;-84
2021/08/26 05:10:56;;;;;;;873.65;780.13;;;;;;;;;;4990135;28;20041;-83
2021/08/26 05:13:22;;;;;;;1001.47;899.47;;;;;;;;;;5006605;28;20029;-84
2021/08/26 05:15:48;;;;;;;794.15;706.42;;;;;;;;;;5009132;28;20030;-84
2021/08/26 05:18:14;;;;;;;1004.63;902.33;;;;;;;;;;4989456;28;20034;-84
2021/08/26 05:20:40;;;;;;;811.03;723.75;;;;;;;;;;4989372;28;20417;-84
2021/08/26 05:23:06;;;;;;;631.70;469.23;;;;;;;;;;4989806;28;20026;-82
2021/08/26 05:25:32;;;;;;;1021.20;917.28;;;;;;;;;;5009007;28;20054;-81
2021/08/26 05:27:58;;;;;;;896.58;802.13;;;;;;;;;;5008065;28;20335;-82
2021/08/26 05:30:24;;;;;;;947.70;849.42;;;;;;;;;;5006917;28;20382;-82
2021/08/26 05:32:50;;;;;;;686.25;562.78;;;;;;;;;;5008518;28;20037;-83
2021/08/26 05:35:16;;;;;;;775.38;650.08;;;;;;;;;;4991984;28;20088;-84
2021/08/26 05:37:42;;;;;;;574.72;361.70;;;;;;;;;;4996310;28;20108;-83
2021/08/26 05:40:08;;;;;;;467.55;208.52;;;;;;;;;;5004270;28;20489;-83
2021/08/26 05:42:34;;;;;;;485.98;220.15;;;;;;;;;;4993325;28;20076;-85
2021/08/26 05:45:00;;;;;;;475.60;213.35;;;;;;;;;;5009017;28;20050;-85
2021/08/26 05:47:26;;;;;;;461.70;202.85;;;;;;;;;;4987617;28;20061;-83
2021/08/26 05:49:52;;;;;;;448.88;189.02;;;;;;;;;;4990596;28;20057;-83
2021/08/26 05:52:18;;;;;;;434.00;178.00;;;;;;;;;;4984653;28;20030;-84
2021/08/26 05:54:44;;;;;;;512.03;345.85;;;;;;;;;;5007282;28;20382;-83
2021/08/26 05:57:10;;;;;;;315.02;183.65;;;;;;;;;;4992171;28;20441;-85
2021/08/26 05:59:36;;;;;;;319.70;214.25;;;;;;;;;;5002356;23;20586;-73
2021/08/26 06:02:02;;;;;;;323.23;187.57;;;;;;;;;;4984159;28;20092;-73
2021/08/26 06:04:28;;;;;;;322.55;198.07;;;;;;;;;;4992213;28;20050;-73
2021/08/26 06:06:54;;;;;;;354.63;316.83;;;;;;;;;;4990002;28;20035;-73
2021/08/26 06:09:20;;;;;;;344.65;306.77;;;;;;;;;;4991731;28;20026;-74
2021/08/26 06:11:46;;;;;;;350.98;313.13;;;;;;;;;;5007916;28;20129;-73
2021/08/26 06:14:13;;;;;;;340.25;133.70;;;;;;;;;;5011457;28;20033;-73
2021/08/26 06:16:40;;;;;;;506.23;251.25;;;;;;;;;;5023531;28;20057;-73
2021/08/26 06:19:06;;;;;;;500.27;237.43;;;;;;;;;;5011529;28;20073;-73
2021/08/26 06:21:32;;;;;;;520.22;268.10;;;;;;;;;;4984481;28;20046;-73
2021/08/26 06:24:05;;;;;;;839.42;749.72;;;;;;;;;;5010576;28;20103;-73
2021/08/26 06:26:31;;;;;;;837.70;748.15;;;;;;;;;;4992458;28;20022;-73
2021/08/26 06:28:57;;;;;;;790.72;704.53;;;;;;;;;;5002428;28;20030;-73
2021/08/26 06:31:23;;;;;;;780.03;694.67;;;;;;;;;;5003645;28;20102;-73
2021/08/26 06:33:49;;;;;;;781.05;695.70;;;;;;;;;;5009574;28;20033;-73
2021/08/26 06:36:15;;;;;;;784.85;699.25;;;;;;;;;;5010772;28;20026;-73
2021/08/26 06:38:44;;;;;;;798.22;712.03;;;;;;;;;;5010637;28;20038;-73
2021/08/26 06:41:10;;;;;;;789.40;703.85;;;;;;;;;;5002427;28;20042;-73
2021/08/26 06:43:36;;;;;;;662.38;512.05;;;;;;;;;;4991116;28;20084;-73
2021/08/26 06:46:02;;;;;;;621.00;452.90;;;;;;;;;;4996895;28;20057;-73
2021/08/26 06:48:28;;;;;;;624.42;470.77;;;;;;;;;;4993033;28;20080;-73
2021/08/26 06:50:54;;;;;;;666.97;541.20;;;;;;;;;;4986958;28;20030;-73
2021/08/26 06:53:20;;;;;;;710.47;615.72;;;;;;;;;;4981376;28;20040;-73
2021/08/26 06:55:46;;;;;;;777.13;693.50;;;;;;;;;;5006278;28;20069;-73
2021/08/26 06:58:12;;;;;;;819.50;732.75;;;;;;;;;;5004537;28;20040;-73
2021/08/26 07:00:38;;;;;;;849.28;760.55;;;;;;;;;;4978055;28;20054;-74
2021/08/26 07:03:04;;;;;;;881.13;789.95;;;;;;;;;;4980529;28;20181;-72
2021/08/26 07:05:30;;;;;;;884.88;793.50;;;;;;;;;;4989597;28;20030;-72
2021/08/26 07:07:55;;;;;;;901.92;809.35;;;;;;;;;;4967423;28;20037;-72
2021/08/26 07:10:21;;;;;;;888.90;797.10;;;;;;;;;;4975189;28;20030;-72
2021/08/26 07:12:47;;;;;;;892.33;800.38;;;;;;;;;;4991309;28;20023;-72
2021/08/26 07:15:13;;;;;;;852.67;763.72;;;;;;;;;;4994501;28;20034;-72
2021/08/26 07:17:39;;;;;;;823.70;736.83;;;;;;;;;;4991031;28;20117;-72
2021/08/26 07:20:06;;;;;;;733.42;652.03;;;;;;;;;;4987503;28;20038;-72
2021/08/26 07:22:32;;;;;;;710.50;620.30;;;;;;;;;;4986364;28;20057;-72
2021/08/26 07:24:58;;;;;;;704.75;612.28;;;;;;;;;;4991136;28;20450;-72
2021/08/26 07:27:24;;;;;;;628.97;473.02;;;;;;;;;;4990931;28;20084;-72
2021/08/26 07:29:50;;;;;;;599.55;423.85;;;;;;;;;;4989563;28;20381;-71
2021/08/26 07:32:16;;;;;;;573.83;369.58;;;;;;;;;;4989633;28;20022;-71
2021/08/26 07:34:42;;;;;;;669.33;549.08;;;;;;;;;;4989274;28;20348;-71
2021/08/26 07:37:08;;;;;;;552.13;340.05;;;;;;;;;;4985185;28;20018;-72
2021/08/26 07:39:33;;;;;;;551.40;341.77;;;;;;;;;;4998101;28;20030;-71
2021/08/26 07:41:59;;;;;;;532.45;313.30;;;;;;;;;;4983867;28;20029;-71
2021/08/26 07:44:25;;;;;;;492.80;254.07;;;;;;;;;;5000640;28;20028;-71
2021/08/26 07:46:51;;;;;;;1031.13;864.15;;;;;;;;;;4979056;28;20120;-71
2021/08/26 07:49:17;;;;;;;1055.00;951.60;;;;;;;;;;4995056;28;20023;-72
2021/08/26 07:51:43;;;;;;;1016.95;916.97;;;;;;;;;;4988236;28;20030;-72
2021/08/26 07:54:09;;;;;;;1053.65;950.30;;;;;;;;;;4988606;28;20041;-72
2021/08/26 07:56:38;;;;;;;1052.10;949.15;;;;;;;;;;4993605;28;20071;-72
2021/08/26 07:59:04;;;;;;;1059.97;956.45;;;;;;;;;;4990396;28;20061;-72
2021/08/26 08:01:30;;;;;;;1058.47;955.13;;;;;;;;;;4967394;28;20061;-73
2021/08/26 08:03:56;;;;;;;1050.80;948.35;;;;;;;;;;4984983;28;20086;-73
2021/08/26 08:06:22;;;;;;;1055.80;953.17;;;;;;;;;;4990080;28;20030;-70
2021/08/26 08:08:48;;;;;;;1047.25;944.85;;;;;;;;;;4988754;28;20524;-70
2021/08/26 08:11:15;;;;;;;1038.60;936.90;;;;;;;;;;4992891;28;20031;-70
2021/08/26 08:13:41;;;;;;;1048.05;945.88;;;;;;;;;;4991116;28;20030;-70
2021/08/26 08:16:07;;;;;;;1043.45;941.55;;;;;;;;;;4996945;28;20031;-71
2021/08/26 08:18:33;;;;;;;1042.53;940.58;;;;;;;;;;4989965;28;20432;-70
2021/08/26 08:21:02;;;;;;;1049.95;947.38;;;;;;;;;;4995321;28;20015;-71
2021/08/26 08:23:28;;;;;;;1040.20;937.80;;;;;;;;;;4985022;28;20487;-72
2021/08/26 08:25:54;;;;;;;1038.68;936.67;;;;;;;;;;4988765;28;20450;-70
2021/08/26 08:28:20;;;;;;;1039.40;937.53;;;;;;;;;;4989481;28;20035;-70
2021/08/26 08:30:47;;;;;;;1038.95;937.25;;;;;;;;;;4996609;28;20069;-70
2021/08/26 08:33:13;;;;;;;1043.10;940.72;;;;;;;;;;5008961;28;20018;-70
2021/08/26 08:35:39;;;;;;;1041.00;939.78;;;;;;;;;;5009227;28;20429;-71
2021/08/26 08:38:05;;;;;;;1033.15;932.35;;;;;;;;;;4979616;28;20533;-70
2021/08/26 08:40:31;;;;;;;1033.97;933.28;;;;;;;;;;4978327;28;20545;-72
2021/08/26 08:42:58;;;;;;;1033.88;932.72;;;;;;;;;;4986300;28;20486;-72
2021/08/26 08:45:24;;;;;;;1031.35;930.28;;;;;;;;;;4966499;28;20054;-72
2021/08/26 08:47:51;;;;;;;1053.80;951.28;;;;;;;;;;4971547;28;20033;-72
2021/08/26 08:50:20;;;;;;;1058.57;956.17;;;;;;;;;;4986446;28;20384;-72
2021/08/26 08:52:46;;;;;;;1068.57;964.97;;;;;;;;;;4968074;28;20038;-74
2021/08/26 08:55:12;;;;;;;1064.72;961.85;;;;;;;;;;4987736;28;20611;-73
2021/08/26 08:57:43;;;;;;;1066.95;963.88;;;;;;;;;;4990073;28;20054;-73
2021/08/26 09:00:10;;;;;;;1056.65;954.67;;;;;;;;;;4991092;28;20089;-73
2021/08/26 09:02:37;;;;;;;1060.75;958.00;;;;;;;;;;4980789;28;20105;-72
2021/08/26 09:05:03;;;;;;;1065.10;962.10;;;;;;;;;;4991643;28;20026;-73
2021/08/26 09:07:30;;;;;;;1043.72;943.00;;;;;;;;;;4989367;28;20041;-73
2021/08/26 09:09:57;;;;;;;1053.60;952.28;;;;;;;;;;4989373;28;20516;-73
2021/08/26 09:12:44;;;;;;;1034.63;934.00;;;;;;;;;;4989289;28;20378;-73
2021/08/26 09:15:20;;;;;;;1036.55;935.95;;;;;;;;;;4978585;28;20324;-73
2021/08/26 09:17:47;;;;;;;1042.47;941.63;;;;;;;;;;4987306;28;20030;-72
2021/08/26 09:20:14;;;;;;;1099.78;993.55;;;;;;;;;;4989505;28;20129;-73
2021/08/26 09:22:41;;;;;;;1091.45;985.50;;;;;;;;;;4987127;28;20381;-73
2021/08/26 09:25:09;;;;;;;1090.75;985.08;;;;;;;;;;4989142;28;20037;-73
2021/08/26 09:27:39;;;;;;;1087.97;982.03;;;;;;;;;;4992001;28;20065;-73
2021/08/26 09:30:10;;;;;;;1076.20;970.90;;;;;;;;;;4988969;28;20030;-73
2021/08/26 09:32:44;;;;;;;1083.22;977.22;;;;;;;;;;4976841;28;20133;-73
2021/08/26 09:35:16;;;;;;;1069.20;964.13;;;;;;;;;;4971437;28;20030;-73
2021/08/26 09:37:42;;;;;;;1071.63;966.53;;;;;;;;;;4985208;28;20041;-73
2021/08/26 09:40:08;;;;;;;1078.70;973.05;;;;;;;;;;4989931;28;20692;-73
2021/08/26 09:42:35;;;;;;;1082.38;976.58;;;;;;;;;;4990396;28;20057;-73
2021/08/26 09:45:17;;;;;;;1088.30;982.42;;;;;;;;;;5006079;28;20564;-73
2021/08/26 09:48:02;;;;;;;1089.78;983.78;;;;;;;;;;4994618;28;20477;-73
2021/08/26 09:50:46;;;;;;;1089.28;983.30;;;;;;;;;;4969135;28;20517;-73
2021/08/26 09:53:19;;;;;;;1106.72;997.65;;;;;;;;;;4975129;28;20564;-73
2021/08/26 09:55:51;;;;;;;1107.30;998.40;;;;;;;;;;4986468;28;20355;-75
2021/08/26 09:58:18;;;;;;;1121.20;999.90;;;;;;;;;;4987746;28;20033;-73
2021/08/26 10:00:44;;;;;;;1117.47;999.90;;;;;;;;;;4987523;28;20327;-73
2021/08/26 10:03:15;;;;;;;1123.38;999.90;;;;;;;;;;4996747;28;20374;-73
2021/08/26 10:05:42;;;;;;;1119.40;999.90;;;;;;;;;;4982721;28;20367;-73
2021/08/26 10:08:09;;;;;;;1120.30;999.90;;;;;;;;;;5000188;28;20038;-73
2021/08/26 10:10:35;;;;;;;1142.70;999.90;;;;;;;;;;4989535;28;20026;-74
2021/08/26 10:13:01;;;;;;;1135.40;999.90;;;;;;;;;;4971443;28;20034;-75
2021/08/26 10:15:27;;;;;;;1140.82;999.90;;;;;;;;;;4987246;28;20061;-74
2021/08/26 10:17:54;;;;;;;1133.68;999.90;;;;;;;;;;4954357;28;20039;-74
2021/08/26 10:20:21;;;;;;;1130.93;999.90;;;;;;;;;;4968458;28;20023;-74
2021/08/26 10:22:48;;;;;;;1129.45;999.90;;;;;;;;;;4982087;28;20046;-73
2021/08/26 10:25:15;;;;;;;1126.25;999.90;;;;;;;;;;4986227;28;20057;-74
2021/08/26 10:27:41;;;;;;;1123.93;999.90;;;;;;;;;;4991864;28;20240;-73
2021/08/26 10:30:07;;;;;;;1139.15;999.90;;;;;;;;;;4986207;28;20449;-73
2021/08/26 10:32:33;;;;;;;1135.20;999.90;;;;;;;;;;4998505;28;20030;-73
2021/08/26 10:35:15;;;;;;;1130.55;999.90;;;;;;;;;;4969147;28;20033;-74
2021/08/26 10:37:54;;;;;;;1131.60;999.90;;;;;;;;;;4983218;28;20034;-74
2021/08/26 10:40:26;;;;;;;1138.25;999.90;;;;;;;;;;4972006;28;20026;-73
2021/08/26 10:42:54;;;;;;;1130.45;999.90;;;;;;;;;;4980577;28;20106;-73
2021/08/26 10:45:27;;;;;;;1128.53;999.90;;;;;;;;;;4984510;28;20386;-71
2021/08/26 10:47:53;;;;;;;1134.20;999.90;;;;;;;;;;4989370;28;20043;-72
2021/08/26 10:50:19;;;;;;;1134.45;999.90;;;;;;;;;;4990016;28;20030;-74
2021/08/26 10:52:54;;;;;;;1129.72;999.90;;;;;;;;;;4986753;28;20034;-73
2021/08/26 10:55:47;;;;;;;1113.80;999.90;;;;;;;;;;4983824;28;20156;-73
2021/08/26 10:58:25;;;;;;;1124.43;999.90;;;;;;;;;;4984239;28;20096;-73
2021/08/26 11:00:52;;;;;;;1119.10;999.90;;;;;;;;;;4983643;28;20050;-73
2021/08/26 11:03:41;;;;;;;1118.45;999.90;;;;;;;;;;4983921;28;20065;-73
2021/08/26 11:06:17;;;;;;;1132.25;999.90;;;;;;;;;;4985579;28;20022;-73
2021/08/26 11:08:45;;;;;;;1119.32;999.90;;;;;;;;;;4983470;28;20041;-75
2021/08/26 11:11:32;;;;;;;1120.07;999.90;;;;;;;;;;4982267;28;20038;-75
2021/08/26 11:14:04;;;;;;;1124.03;999.90;;;;;;;;;;4985416;28;20027;-74
2021/08/26 11:16:30;;;;;;;1135.50;999.90;;;;;;;;;;4997818;28;20044;-72
2021/08/26 11:19:19;;;;;;;1130.97;999.90;;;;;;;;;;4997712;28;20122;-73
2021/08/26 11:21:45;;;;;;;1135.50;999.90;;;;;;;;;;5003664;28;20052;-72
2021/08/26 11:24:31;;;;;;;1131.38;999.90;;;;;;;;;;5006254;28;20105;-72
2021/08/26 11:27:04;;;;;;;1118.30;999.90;;;;;;;;;;5006108;28;20048;-72
2021/08/26 11:29:30;;;;;;;1157.47;999.90;;;;;;;;;;4988693;28;20038;-72
2021/08/26 11:32:00;;;;;;;1168.53;999.90;;;;;;;;;;4986460;28;20030;-73
2021/08/26 11:34:33;;;;;;;1187.70;999.90;;;;;;;;;;4986548;28;20077;-73
2021/08/26 11:37:05;;;;;;;1179.43;999.90;;;;;;;;;;4986675;28;20101;-73
2021/08/26 11:39:33;;;;;;;1182.15;999.90;;;;;;;;;;4986938;28;20525;-73
2021/08/26 11:41:59;;;;;;;1193.47;999.90;;;;;;;;;;4987175;28;20029;-73
2021/08/26 11:44:27;;;;;;;1190.07;999.90;;;;;;;;;;4986617;28;20580;-73
2021/08/26 11:46:53;;;;;;;1191.47;999.90;;;;;;;;;;4987956;28;20027;-73
2021/08/26 11:49:19;;;;;;;1217.60;999.90;;;;;;;;;;4986485;28;20062;-73
2021/08/26 11:51:46;;;;;;;1246.32;999.90;;;;;;;;;;4984615;28;20112;-73
2021/08/26 11:54:12;;;;;;;1265.15;999.90;;;;;;;;;;4987294;28;20049;-73
2021/08/26 11:56:46;;;;;;;1263.47;999.90;;;;;;;;;;5005895;28;20022;-73
2021/08/26 11:59:24;;;;;;;1273.18;999.90;;;;;;;;;;5005947;28;20512;-73
2021/08/26 12:01:50;;;;;;;1254.30;999.90;;;;;;;;;;5005859;28;20053;-73
2021/08/26 12:04:16;;;;;;;1275.28;999.90;;;;;;;;;;4962066;28;20124;-73
2021/08/26 12:06:49;;;;;;;1290.82;999.90;;;;;;;;;;5004905;28;20327;-73
2021/08/26 12:09:14;;;;;;;1318.22;999.90;;;;;;;;;;4985979;28;20437;-73
2021/08/26 12:11:41;;;;;;;1324.85;999.90;;;;;;;;;;4984922;28;20117;-73
2021/08/26 12:14:09;;;;;;;1320.70;999.90;;;;;;;;;;4986008;28;20038;-73
2021/08/26 12:16:35;;;;;;;1297.32;999.90;;;;;;;;;;4985893;28;20530;-73
2021/08/26 12:19:04;;;;;;;1278.40;999.90;;;;;;;;;;4985005;28;20042;-72
2021/08/26 12:21:30;;;;;;;1257.40;999.90;;;;;;;;;;4983735;28;20374;-72
2021/08/26 12:23:56;;;;;;;1242.22;999.90;;;;;;;;;;4996725;28;20026;-72
2021/08/26 12:26:22;;;;;;;1225.18;999.90;;;;;;;;;;4988020;28;20527;-72
2021/08/26 12:28:59;;;;;;;1216.47;999.90;;;;;;;;;;5006341;28;20472;-72
2021/08/26 12:31:25;;;;;;;1213.75;999.90;;;;;;;;;;5000842;28;20026;-72
2021/08/26 12:33:58;;;;;;;1203.05;999.90;;;;;;;;;;4992006;28;20030;-72
2021/08/26 12:36:24;;;;;;;1189.70;999.90;;;;;;;;;;4989821;28;20033;-73
2021/08/26 12:38:50;;;;;;;1190.95;999.90;;;;;;;;;;4989532;28;20061;-72
2021/08/26 12:41:17;;;;;;;1218.47;999.90;;;;;;;;;;4985830;28;20432;-73
2021/08/26 12:43:54;;;;;;;1252.50;999.90;;;;;;;;;;4991217;28;20087;-73
2021/08/26 12:46:28;;;;;;;1278.95;999.90;;;;;;;;;;4990379;28;20025;-72
2021/08/26 12:49:08;;;;;;;1308.60;999.90;;;;;;;;;;4980498;28;20042;-73
2021/08/26 12:51:34;;;;;;;1290.78;999.90;;;;;;;;;;5002200;28;20030;-72
2021/08/26 12:54:03;;;;;;;1296.80;999.90;;;;;;;;;;4981888;28;20101;-73
2021/08/26 12:56:38;;;;;;;1288.78;999.90;;;;;;;;;;4981857;28;20037;-73
2021/08/26 12:59:08;;;;;;;1287.70;999.90;;;;;;;;;;4989570;28;20033;-73
2021/08/26 13:01:34;;;;;;;;;;;;;;;;;;4990305;28;20152;-73
2021/08/26 13:04:01;;;;;;;1264.80;999.90;;;;;;;;;;4989428;28;20361;-73
2021/08/26 13:06:33;;;;;;;1267.38;999.90;;;;;;;;;;4989344;28;20015;-73
2021/08/26 13:09:05;;;;;;;1266.65;999.90;;;;;;;;;;4989372;28;20117;-73
2021/08/26 13:11:31;;;;;;;1251.05;999.90;;;;;;;;;;4989439;28;20022;-73
2021/08/26 13:13:58;;;;;;;1249.90;999.90;;;;;;;;;;5001794;28;20315;-73
2021/08/26 13:16:24;;;;;;;1264.53;999.90;;;;;;;;;;5007734;28;20020;-73
2021/08/26 13:18:50;;;;;;;1256.18;999.90;;;;;;;;;;4995213;28;20495;-73
2021/08/26 13:21:16;;;;;;;1242.20;999.90;;;;;;;;;;4992557;28;20034;-73
2021/08/26 13:23:43;;;;;;;1239.80;999.90;;;;;;;;;;4988934;28;20034;-72
2021/08/26 13:26:09;;;;;;;1226.00;999.90;;;;;;;;;;4989733;28;20243;-73
2021/08/26 13:28:35;;;;;;;1230.47;999.90;;;;;;;;;;4986663;28;20027;-73
2021/08/26 13:31:01;;;;;;;1228.70;999.90;;;;;;;;;;4988404;28;20521;-72
2021/08/26 13:33:27;;;;;;;1233.05;999.90;;;;;;;;;;4987116;28;20442;-73
2021/08/26 13:35:53;;;;;;;1240.65;999.90;;;;;;;;;;4991398;28;20022;-73
2021/08/26 13:38:19;;;;;;;1256.82;999.90;;;;;;;;;;5008451;28;20322;-73
2021/08/26 13:40:45;;;;;;;1281.82;999.90;;;;;;;;;;5007232;28;20528;-73
2021/08/26 13:43:11;;;;;;;1295.30;999.90;;;;;;;;;;4988410;28;20112;-73
2021/08/26 13:45:38;;;;;;;1296.93;999.90;;;;;;;;;;4988437;28;20038;-73
2021/08/26 13:48:04;;;;;;;1308.53;999.90;;;;;;;;;;4988507;28;20069;-73
2021/08/26 13:50:33;;;;;;;1330.95;999.90;;;;;;;;;;4988620;28;20121;-73
2021/08/26 13:52:59;;;;;;;1350.37;999.90;;;;;;;;;;4987870;28;20037;-73